Terminal Aerodrome Forecast
Issued by NWS

Home | Current Version | Previous Version | Text Only | Print | Product List | Glossary On
Versions: 1 2 3 4 5 6 7 8 9 10 11 12 13
000
FTUS46 KPDT 141120
TAFPSC
TAF
KPSC 141120Z 1412/1512 VRB03KT P6SM BKN020 OVC027
     FM142100 VRB06KT P6SM BKN024 OVC030
     FM150600 10004KT 4SM BR OVC015=

USA.gov is the U.S. government's official web portal to all federal, state and local government web resources and services.